Clayton, South Dakota
Current Conditions -  °F | °C
As of 5:53 AM on Sunday 21 Dec 2014 (Local Time) from KMHE Reporting Station
Haze Haze  
Wind Chill: 22°   Ceiling: 200
Heat Index: 31°   Visibility: 1.5mi
Dew Point: 31°   Wind: 12mph
Humidity: 100%   Direction: 160°SSE
Pressure: 29.78"   Gusts: NA
Location:  43.5283°N, 97.6775°W
Report Text: KMHE 211153Z AUTO 16010KT 1 1/2SM BR OVC002 M01/M01 A2978 RMK AO2 SLP099 T10061006 10000 21006 58019
Loading
Personal Weather Stations






























Interactive Weather Map New forecast layout! Learn more

10-Day Weather Forecast

Advertisements
Track Severe Weather on mobile